createdAt,value
2023-01-04T00:00:00.263Z,101080.11
2023-01-04T00:02:27.587Z,101082.21
2023-01-04T00:04:55.230Z,101086.73
2023-01-04T00:07:22.299Z,101085.02
2023-01-04T00:09:48.950Z,101085.28
2023-01-04T00:12:15.561Z,101087.48
2023-01-04T00:14:45.841Z,101092.08
2023-01-04T00:17:12.550Z,101092.70
2023-01-04T00:19:39.327Z,101090.16
2023-01-04T00:22:05.972Z,101095.30
2023-01-04T00:24:36.213Z,101094.63
2023-01-04T00:27:03.625Z,101093.54
2023-01-04T00:29:36.595Z,101099.59
2023-01-04T00:32:04.590Z,101091.42
2023-01-04T00:34:31.934Z,101094.51
2023-01-04T00:37:04.781Z,101097.23
2023-01-04T00:39:32.818Z,101099.20
2023-01-04T00:42:04.676Z,101107.14
2023-01-04T00:44:34.622Z,101113.92
2023-01-04T00:47:06.097Z,101108.16
2023-01-04T00:49:36.807Z,101117.36
2023-01-04T00:52:04.244Z,101112.38
2023-01-04T00:54:34.880Z,101112.71
2023-01-04T00:57:01.985Z,101109.41
2023-01-04T00:59:29.992Z,101107.98
2023-01-04T01:01:59.419Z,101105.08
2023-01-04T01:04:27.387Z,101099.30
2023-01-04T01:06:53.964Z,101091.40
2023-01-04T01:09:22.030Z,101092.08
2023-01-04T01:11:48.643Z,101093.23
2023-01-04T01:14:21.317Z,101094.84
2023-01-04T01:17:03.955Z,101093.05
2023-01-04T01:19:31.581Z,101094.77
2023-01-04T01:21:58.544Z,101100.99
2023-01-04T01:24:25.841Z,101104.75
2023-01-04T01:26:52.386Z,101106.86
2023-01-04T01:29:20.229Z,101107.85
2023-01-04T01:31:47.409Z,101106.18
2023-01-04T01:34:18.069Z,101109.29
2023-01-04T01:36:46.513Z,101113.02
2023-01-04T01:39:14.787Z,101113.29
2023-01-04T01:41:44.241Z,101120.57
2023-01-04T01:44:30.245Z,101120.48
2023-01-04T01:46:57.279Z,101131.96
2023-01-04T01:49:31.518Z,101135.48
2023-01-04T01:51:59.552Z,101139.23
2023-01-04T01:54:52.785Z,101143.98
2023-01-04T01:57:22.424Z,101138.38
2023-01-04T01:59:51.129Z,101139.17
2023-01-04T02:02:18.144Z,101134.14
2023-01-04T02:04:46.349Z,101131.08
2023-01-04T02:07:15.645Z,101131.64
2023-01-04T02:09:42.815Z,101126.54
2023-01-04T02:12:14.668Z,101123.71
2023-01-04T02:14:43.704Z,101123.59
2023-01-04T02:17:10.710Z,101121.72
2023-01-04T02:20:00.177Z,101119.15
2023-01-04T02:22:45.444Z,101112.33
2023-01-04T02:25:11.940Z,101103.64
2023-01-04T02:27:44.478Z,101098.59
2023-01-04T02:30:36.902Z,101089.66
2023-01-04T02:33:21.832Z,101075.91
2023-01-04T02:35:48.494Z,101061.95
2023-01-04T02:38:27.227Z,101056.27
2023-01-04T02:41:33.072Z,101057.30
2023-01-04T02:44:41.400Z,101068.67
2023-01-04T02:47:09.582Z,101064.27
2023-01-04T02:49:59.222Z,101060.67
2023-01-04T02:52:33.219Z,101054.02
2023-01-04T02:55:07.128Z,101052.91
2023-01-04T02:58:02.564Z,101052.49
2023-01-04T03:00:29.360Z,101055.52
2023-01-04T03:03:27.804Z,101057.20
2023-01-04T03:06:15.472Z,101063.40
2023-01-04T03:08:54.229Z,101074.31
2023-01-04T03:11:39.527Z,101084.02
2023-01-04T03:14:31.015Z,101095.46
2023-01-04T03:16:58.455Z,101101.07
2023-01-04T03:19:45.321Z,101111.73
2023-01-04T03:22:33.111Z,101119.48
2023-01-04T03:25:22.078Z,101129.25
2023-01-04T03:28:10.000Z,101132.16
2023-01-04T03:30:59.510Z,101131.49
2023-01-04T03:33:46.770Z,101133.52
2023-01-04T03:36:13.384Z,101131.84
2023-01-04T03:39:07.813Z,101134.94
2023-01-04T03:42:02.740Z,101139.12
2023-01-04T03:44:47.933Z,101138.59
2023-01-04T03:47:36.688Z,101133.81
2023-01-04T03:50:09.708Z,101126.64
2023-01-04T03:52:38.057Z,101118.69
2023-01-04T03:55:05.921Z,101121.89
2023-01-04T03:57:36.094Z,101122.67
2023-01-04T04:00:07.020Z,101125.15
2023-01-04T04:02:34.597Z,101126.86
2023-01-04T04:05:19.802Z,101134.15
2023-01-04T04:08:04.636Z,101137.27
2023-01-04T04:10:31.123Z,101135.41
2023-01-04T04:12:57.701Z,101137.67
2023-01-04T04:15:24.745Z,101137.03
2023-01-04T04:17:56.127Z,101131.77
2023-01-04T04:20:24.973Z,101130.44
2023-01-04T04:22:51.616Z,101128.45
2023-01-04T04:25:18.477Z,101128.08
2023-01-04T04:27:48.815Z,101133.54
2023-01-04T04:30:16.431Z,101142.61
2023-01-04T04:32:42.895Z,101153.44
2023-01-04T04:35:10.297Z,101161.77
2023-01-04T04:37:39.746Z,101167.21
2023-01-04T04:40:06.631Z,101181.14
2023-01-04T04:42:33.155Z,101185.06
2023-01-04T04:44:59.623Z,101182.84
2023-01-04T04:47:29.207Z,101176.30
2023-01-04T04:49:56.633Z,101172.98
2023-01-04T04:52:23.409Z,101175.63
2023-01-04T04:54:49.981Z,101180.23
2023-01-04T04:57:16.457Z,101186.53
2023-01-04T04:59:45.162Z,101195.21
2023-01-04T05:02:12.452Z,101197.50
2023-01-04T05:04:41.786Z,101200.95
2023-01-04T05:07:12.638Z,101205.56
2023-01-04T05:09:39.400Z,101214.61
2023-01-04T05:12:25.275Z,101219.32
2023-01-04T05:14:55.387Z,101221.61
2023-01-04T05:17:24.757Z,101224.30
2023-01-04T05:19:51.600Z,101225.56
2023-01-04T05:22:19.652Z,101228.23
2023-01-04T05:24:47.324Z,101224.18
2023-01-04T05:27:14.975Z,101220.55
2023-01-04T05:30:00.071Z,101224.00
2023-01-04T05:32:28.235Z,101227.02
2023-01-04T05:34:54.693Z,101231.45
2023-01-04T05:37:22.210Z,101220.48
2023-01-04T05:39:51.263Z,101215.09
2023-01-04T05:42:27.557Z,101212.23
2023-01-04T05:44:56.603Z,101209.98
2023-01-04T05:47:27.474Z,101209.42
2023-01-04T05:49:55.233Z,101210.20
2023-01-04T05:52:24.381Z,101205.17
2023-01-04T05:54:51.598Z,101203.32
2023-01-04T05:57:18.312Z,101202.35
2023-01-04T05:59:45.087Z,101204.44
2023-01-04T06:02:17.259Z,101205.34
2023-01-04T06:04:46.181Z,101200.64
2023-01-04T06:07:13.147Z,101201.27
2023-01-04T06:09:39.770Z,101196.38
2023-01-04T06:12:09.288Z,101195.23
2023-01-04T06:14:35.836Z,101204.86
2023-01-04T06:17:02.540Z,101212.98
2023-01-04T06:19:29.208Z,101215.17
2023-01-04T06:21:56.401Z,101220.79
2023-01-04T06:24:23.497Z,101224.34
2023-01-04T06:26:50.010Z,101234.61
2023-01-04T06:29:16.770Z,101236.39
2023-01-04T06:31:45.211Z,101242.69
2023-01-04T06:34:13.693Z,101242.89
2023-01-04T06:36:41.817Z,101246.09
2023-01-04T06:39:09.121Z,101251.21
2023-01-04T06:41:35.607Z,101253.52
2023-01-04T06:44:05.447Z,101252.36
2023-01-04T06:46:50.545Z,101256.08
2023-01-04T06:49:17.753Z,101261.56
2023-01-04T06:51:46.636Z,101264.36
2023-01-04T06:54:13.892Z,101274.85
2023-01-04T06:56:40.715Z,101271.73
2023-01-04T06:59:16.928Z,101269.35
2023-01-04T07:01:44.580Z,101271.33
2023-01-04T07:04:11.625Z,101274.69
2023-01-04T07:06:39.637Z,101279.94
2023-01-04T07:09:06.681Z,101288.56
2023-01-04T07:11:34.567Z,101292.80
2023-01-04T07:14:02.127Z,101300.69
2023-01-04T07:16:28.966Z,101306.23
2023-01-04T07:18:56.804Z,101309.11
2023-01-04T07:21:26.199Z,101307.20
2023-01-04T07:23:53.244Z,101314.73
2023-01-04T07:26:19.757Z,101317.91
2023-01-04T07:29:05.590Z,101320.36
2023-01-04T07:31:32.286Z,101328.57
2023-01-04T07:34:00.985Z,101333.29
2023-01-04T07:36:29.993Z,101338.36
2023-01-04T07:38:58.310Z,101334.73
2023-01-04T07:41:25.751Z,101339.75
2023-01-04T07:43:53.920Z,101352.02
2023-01-04T07:46:21.654Z,101350.74
2023-01-04T07:48:48.362Z,101351.39
2023-01-04T07:51:15.814Z,101352.95
2023-01-04T07:53:43.165Z,101357.86
2023-01-04T07:56:15.329Z,101363.71
2023-01-04T07:58:46.545Z,101367.94
2023-01-04T08:06:08.230Z,101371.15
2023-01-04T08:08:34.881Z,101369.34
2023-01-04T08:11:06.111Z,101370.22
2023-01-04T08:13:41.326Z,101370.40
2023-01-04T08:16:09.109Z,101373.16
2023-01-04T08:18:37.287Z,101375.55
2023-01-04T08:21:06.376Z,101378.25
2023-01-04T08:23:34.790Z,101383.85
2023-01-04T08:26:33.144Z,101382.38
2023-01-04T08:29:00.610Z,101377.89
2023-01-04T08:31:34.661Z,101374.51
2023-01-04T08:34:03.415Z,101374.64
2023-01-04T08:36:31.930Z,101380.93
2023-01-04T08:39:04.467Z,101376.72
2023-01-04T08:41:57.536Z,101376.27
2023-01-04T08:44:23.383Z,101380.88
2023-01-04T08:46:54.243Z,101390.61
2023-01-04T08:49:36.071Z,101387.92
2023-01-04T08:52:03.302Z,101388.02
2023-01-04T08:54:50.116Z,101385.64
2023-01-04T08:57:27.564Z,101392.23
2023-01-04T08:59:54.650Z,101394.38
2023-01-04T09:06:39.635Z,101399.08
2023-01-04T09:13:06.706Z,101391.66
2023-01-04T09:15:35.831Z,101387.91
2023-01-04T09:18:31.637Z,101384.86
2023-01-04T09:21:17.172Z,101385.71
2023-01-04T09:23:46.106Z,101381.08
2023-01-04T09:26:25.856Z,101361.70
2023-01-04T09:28:54.972Z,101370.67
2023-01-04T09:31:24.231Z,101362.90
2023-01-04T09:39:47.015Z,101358.02
2023-01-04T09:42:36.783Z,101365.15
2023-01-04T09:45:24.222Z,101369.34
2023-01-04T09:48:10.281Z,101376.64
2023-01-04T09:50:53.793Z,101379.65
2023-01-04T09:53:24.205Z,101375.67
2023-01-04T09:55:53.392Z,101368.09
2023-01-04T09:58:24.504Z,101369.64
2023-01-04T10:00:59.096Z,101368.33
2023-01-04T10:03:38.920Z,101353.13
2023-01-04T10:06:08.943Z,101349.63
2023-01-04T10:08:37.613Z,101340.24
2023-01-04T10:11:18.842Z,101339.89
2023-01-04T10:13:55.108Z,101340.48
2023-01-04T10:22:41.560Z,101355.83
2023-01-04T10:25:15.337Z,101353.48
2023-01-04T10:27:43.204Z,101355.36
2023-01-04T10:30:16.906Z,101355.56
2023-01-04T10:32:55.132Z,101352.94
2023-01-04T10:35:25.216Z,101359.01
2023-01-04T10:38:03.746Z,101342.34
2023-01-04T10:40:33.682Z,101370.30
2023-01-04T10:43:04.403Z,101364.46
2023-01-04T10:45:40.994Z,101381.83
2023-01-04T10:48:22.628Z,101381.76
2023-01-04T10:50:50.573Z,101380.65
2023-01-04T10:53:20.521Z,101380.90
2023-01-04T10:56:23.925Z,101381.16
2023-01-04T10:58:50.068Z,101378.77
2023-01-04T11:01:38.248Z,101372.36
2023-01-04T11:04:11.077Z,101369.27
2023-01-04T11:06:42.859Z,101370.20
2023-01-04T11:09:13.525Z,101362.12
2023-01-04T11:11:45.225Z,101367.58
2023-01-04T11:14:14.386Z,101359.16
2023-01-04T11:16:48.230Z,101365.25
2023-01-04T11:19:16.254Z,101372.90
2023-01-04T11:21:50.062Z,101352.56
2023-01-04T11:24:33.763Z,101369.79
2023-01-04T11:27:06.532Z,101364.77
2023-01-04T11:34:06.405Z,101367.75
2023-01-04T11:36:35.547Z,101361.52
2023-01-04T11:39:04.274Z,101372.77
2023-01-04T11:41:32.293Z,101370.15
2023-01-04T11:44:25.449Z,101359.52
2023-01-04T11:47:11.644Z,101366.25
2023-01-04T11:49:38.852Z,101365.74
2023-01-04T11:55:26.373Z,101364.19
2023-01-04T12:37:59.549Z,101360.33
2023-01-04T12:40:45.209Z,101356.40
2023-01-04T12:43:15.381Z,101356.20
2023-01-04T12:45:43.882Z,101361.41
2023-01-04T12:48:50.009Z,101352.77
2023-01-04T12:51:37.374Z,101359.11
2023-01-04T12:54:23.276Z,101363.73
2023-01-04T12:57:09.208Z,101363.63
2023-01-04T12:59:38.539Z,101358.96
2023-01-04T13:02:19.593Z,101352.27
2023-01-04T13:23:27.665Z,101366.33
2023-01-04T13:25:55.380Z,101353.79
2023-01-04T13:28:23.436Z,101362.95
2023-01-04T13:31:00.025Z,101363.55
2023-01-04T13:33:29.668Z,101351.94
2023-01-04T13:36:17.518Z,101356.58
2023-01-04T13:38:45.049Z,101359.27
2023-01-04T13:41:20.775Z,101351.67
2023-01-04T14:36:00.621Z,101375.95
2023-01-04T14:38:28.419Z,101372.91
2023-01-04T14:40:55.641Z,101375.48
2023-01-04T14:43:49.514Z,101377.61
2023-01-04T14:46:17.345Z,101378.08
2023-01-04T14:48:44.617Z,101382.94
2023-01-04T14:51:16.183Z,101385.93
2023-01-04T14:53:44.001Z,101368.92
2023-01-04T14:56:13.194Z,101374.31
2023-01-04T15:21:46.266Z,101371.96
2023-01-04T15:24:15.411Z,101368.25
2023-01-04T15:26:43.091Z,101364.16
2023-01-04T15:29:09.560Z,101372.80
2023-01-04T15:31:39.736Z,101370.71
2023-01-04T15:34:07.493Z,101378.10
2023-01-04T15:36:37.857Z,101374.58
2023-01-04T15:39:04.639Z,101378.39
2023-01-04T15:41:50.776Z,101379.64
2023-01-04T15:44:17.805Z,101376.02
2023-01-04T15:46:44.359Z,101379.75
2023-01-04T15:49:16.884Z,101378.54
2023-01-04T15:51:44.092Z,101377.76
2023-01-04T15:54:10.791Z,101381.33
2023-01-04T15:56:37.190Z,101382.21
2023-01-04T15:59:03.718Z,101381.29
2023-01-04T16:01:30.347Z,101382.10
2023-01-04T16:03:56.806Z,101384.25
2023-01-04T16:06:23.372Z,101390.76
2023-01-04T16:08:52.189Z,101390.95
2023-01-04T16:11:20.064Z,101392.66
2023-01-04T16:13:47.430Z,101393.80
2023-01-04T16:16:14.500Z,101390.41
2023-01-04T16:18:45.014Z,101392.00
2023-01-04T16:21:11.820Z,101392.09
2023-01-04T16:23:38.844Z,101392.95
2023-01-04T16:26:10.155Z,101387.81
2023-01-04T16:28:37.252Z,101386.22
2023-01-04T16:31:04.393Z,101388.05
2023-01-04T16:33:31.459Z,101389.52
2023-01-04T16:36:02.941Z,101395.65
2023-01-04T16:38:29.879Z,101393.81
2023-01-04T16:40:57.631Z,101391.29
2023-01-04T16:43:24.213Z,101391.05
2023-01-04T16:45:50.961Z,101393.63
2023-01-04T16:48:18.821Z,101385.68
2023-01-04T16:50:45.365Z,101379.18
2023-01-04T16:53:12.171Z,101379.06
2023-01-04T16:55:38.615Z,101376.52
2023-01-04T16:58:05.023Z,101375.88
2023-01-04T17:03:37.877Z,101372.87
2023-01-04T17:06:16.095Z,101385.72
2023-01-04T17:08:44.911Z,101371.61
2023-01-04T17:14:01.640Z,101371.48
2023-01-04T17:16:34.458Z,101368.02
2023-01-04T17:19:02.577Z,101365.99
2023-01-04T17:21:35.325Z,101366.92
2023-01-04T17:24:03.602Z,101379.51
2023-01-04T17:26:32.160Z,101372.83
2023-01-04T17:29:00.604Z,101366.94
2023-01-04T17:31:35.676Z,101368.25
2023-01-04T17:34:03.440Z,101367.10
2023-01-04T17:36:30.923Z,101363.35
2023-01-04T17:39:00.063Z,101367.66
2023-01-04T17:41:28.557Z,101368.58
2023-01-04T17:44:02.205Z,101365.69
2023-01-04T17:46:33.567Z,101360.38
2023-01-04T17:49:22.782Z,101365.62
2023-01-04T17:51:52.361Z,101369.70
2023-01-04T17:54:20.775Z,101373.95
2023-01-04T17:56:48.237Z,101372.10
2023-01-04T17:59:15.958Z,101363.44
2023-01-04T18:01:43.651Z,101369.38
2023-01-04T18:04:12.025Z,101374.28
2023-01-04T18:06:39.989Z,101375.08
2023-01-04T18:09:08.532Z,101371.83
2023-01-04T18:11:36.895Z,101354.85
2023-01-04T18:14:09.754Z,101368.72
2023-01-04T18:16:56.072Z,101359.55
2023-01-04T18:19:25.663Z,101368.40
2023-01-04T18:24:40.790Z,101367.39
2023-01-04T18:27:26.701Z,101360.18
2023-01-04T18:29:55.263Z,101358.23
2023-01-04T18:32:24.129Z,101350.05
2023-01-04T18:34:51.582Z,101361.13
2023-01-04T18:37:19.351Z,101355.09
2023-01-04T18:39:47.810Z,101354.77
2023-01-04T18:42:16.116Z,101354.40
2023-01-04T18:44:50.830Z,101346.88
2023-01-04T18:47:21.173Z,101344.71
2023-01-04T18:49:49.710Z,101332.36
2023-01-04T18:52:18.086Z,101332.63
2023-01-04T18:54:47.550Z,101325.23
2023-01-04T19:00:10.954Z,101319.32
2023-01-04T19:02:40.485Z,101320.45
2023-01-04T19:05:08.784Z,101314.77
2023-01-04T19:07:38.456Z,101322.85
2023-01-04T19:10:06.302Z,101311.44
2023-01-04T19:12:35.082Z,101313.50
2023-01-04T19:15:02.889Z,101314.32
2023-01-04T19:17:30.805Z,101312.83
2023-01-04T19:19:58.241Z,101308.11
2023-01-04T19:22:26.204Z,101311.13
2023-01-04T19:24:53.718Z,101311.67
2023-01-04T19:27:21.636Z,101314.36
2023-01-04T19:29:49.119Z,101311.84
2023-01-04T19:32:18.908Z,101307.14
2023-01-04T19:34:46.224Z,101301.15
2023-01-04T19:37:13.747Z,101310.16
2023-01-04T19:39:41.658Z,101302.31
2023-01-04T19:42:08.932Z,101304.30
2023-01-04T19:44:37.220Z,101308.30
2023-01-04T19:47:04.534Z,101312.63
2023-01-04T19:49:32.042Z,101306.37
2023-01-04T19:51:59.570Z,101301.38
2023-01-04T19:54:27.152Z,101295.71
2023-01-04T19:56:54.716Z,101296.73
2023-01-04T19:59:22.287Z,101295.02
2023-01-04T20:01:49.656Z,101291.73
2023-01-04T20:04:17.513Z,101291.59
2023-01-04T20:06:45.063Z,101283.66
2023-01-04T20:09:12.475Z,101288.55
2023-01-04T20:11:39.914Z,101284.40
2023-01-04T20:14:07.428Z,101270.42
2023-01-04T20:16:35.203Z,101281.41
2023-01-04T20:19:02.801Z,101280.85
2023-01-04T20:24:16.720Z,101276.66
2023-01-04T20:26:44.538Z,101276.06
2023-01-04T20:29:12.243Z,101277.48
2023-01-04T20:31:45.576Z,101271.38
2023-01-04T20:34:15.036Z,101263.24
2023-01-04T20:36:42.744Z,101271.33
2023-01-04T20:39:10.467Z,101271.20
2023-01-04T20:41:57.912Z,101265.66
2023-01-04T20:44:25.366Z,101263.77
2023-01-04T20:46:52.978Z,101250.80
2023-01-04T20:49:21.407Z,101260.79
2023-01-04T20:51:49.307Z,101258.08
2023-01-04T20:54:17.010Z,101260.94
2023-01-04T20:56:44.506Z,101259.66
2023-01-04T20:59:11.953Z,101254.30
2023-01-04T21:01:39.529Z,101251.59
2023-01-04T21:04:09.124Z,101253.09
2023-01-04T21:06:37.638Z,101252.59
2023-01-04T21:09:05.348Z,101250.08
2023-01-04T21:11:33.131Z,101234.91
2023-01-04T21:14:02.269Z,101252.27
2023-01-04T21:16:29.738Z,101246.79
2023-01-04T21:18:57.777Z,101242.27
2023-01-04T21:21:25.541Z,101238.35
2023-01-04T21:23:57.761Z,101230.73
2023-01-04T21:26:25.393Z,101238.13
2023-01-04T21:28:52.975Z,101236.61
2023-01-04T21:31:23.296Z,101233.84
2023-01-04T21:33:51.481Z,101231.66
2023-01-04T21:36:22.130Z,101229.86
2023-01-04T21:38:49.757Z,101230.86
2023-01-04T21:41:17.213Z,101231.34
2023-01-04T21:43:44.513Z,101223.11
2023-01-04T21:46:12.712Z,101227.02
2023-01-04T21:48:40.570Z,101220.27
2023-01-04T21:51:07.971Z,101220.66
2023-01-04T21:53:36.043Z,101210.16
2023-01-04T21:56:05.350Z,101217.80
2023-01-04T21:58:33.231Z,101218.69
2023-01-04T22:01:00.524Z,101211.19
2023-01-04T22:03:27.752Z,101204.94
2023-01-04T22:06:00.302Z,101204.19
2023-01-04T22:08:29.201Z,101195.51
2023-01-04T22:10:56.330Z,101191.06
2023-01-04T22:13:23.787Z,101186.59
2023-01-04T22:15:51.108Z,101182.90
2023-01-04T22:18:18.392Z,101181.12
2023-01-04T22:20:45.561Z,101179.02
2023-01-04T22:23:12.845Z,101172.38
2023-01-04T22:25:39.536Z,101161.95
2023-01-04T22:28:05.971Z,101164.69
2023-01-04T22:30:32.416Z,101162.08
2023-01-04T22:32:58.941Z,101161.60
2023-01-04T22:35:25.535Z,101159.77
2023-01-04T22:37:51.978Z,101153.84
2023-01-04T22:40:18.427Z,101154.30
2023-01-04T22:42:45.197Z,101152.38
2023-01-04T22:45:13.507Z,101151.26
2023-01-04T22:47:40.273Z,101147.80
2023-01-04T22:50:06.779Z,101144.08
2023-01-04T22:52:33.286Z,101139.48
2023-01-04T22:54:59.782Z,101135.45
2023-01-04T22:57:26.304Z,101137.09
2023-01-04T22:59:52.777Z,101131.89
2023-01-04T23:02:19.406Z,101130.67
2023-01-04T23:04:45.890Z,101126.13
2023-01-04T23:07:12.392Z,101120.27
2023-01-04T23:09:38.980Z,101115.80
2023-01-04T23:12:05.620Z,101111.14
2023-01-04T23:14:32.054Z,101109.15
2023-01-04T23:16:58.626Z,101109.71
2023-01-04T23:19:25.520Z,101105.38
2023-01-04T23:21:51.983Z,101102.81
2023-01-04T23:24:19.433Z,101100.24
2023-01-04T23:26:46.595Z,101097.50
2023-01-04T23:29:15.122Z,101091.96
2023-01-04T23:31:41.802Z,101086.63
2023-01-04T23:34:11.045Z,101084.52
2023-01-04T23:36:38.874Z,101082.71
2023-01-04T23:39:07.031Z,101078.17
2023-01-04T23:41:46.097Z,101076.55
2023-01-04T23:44:26.543Z,101069.20
2023-01-04T23:46:57.396Z,101066.70
2023-01-04T23:49:24.718Z,101063.16
2023-01-04T23:51:51.575Z,101070.88
2023-01-04T23:54:18.627Z,101073.52
2023-01-04T23:56:45.144Z,101068.66
2023-01-04T23:59:11.851Z,101060.52
